Time;durP1;ratioP1;P1;durP2;ratioP2;P2;SDS_P1;SDS_P2;PMS_P1;PMS_P2;Temp;Humidity;BMP_temperature;BMP_pressure;BME280_temperature;BME280_humidity;BME280_pressure;Samples;Min_cycle;Max_cycle;Signal;HPM_P1;HPM_P2
2022/12/18 00:01:06;;;;;;;92.75;42.58;;;-7.30;67.40;;;;;;5020058;28;20162;-88
2022/12/18 00:03:38;;;;;;;88.95;41.45;;;-7.30;69.80;;;;;;5019223;28;20017;-85
2022/12/18 00:06:05;;;;;;;74.05;35.30;;;-7.20;70.50;;;;;;5019128;28;20029;-85
2022/12/18 00:08:31;;;;;;;77.38;36.55;;;-7.10;74.40;;;;;;5018750;28;20068;-85
2022/12/18 00:11:07;;;;;;;64.18;31.83;;;-7.10;75.70;;;;;;5018765;28;20061;-83
2022/12/18 00:13:32;;;;;;;77.53;35.83;;;-7.00;77.40;;;;;;5018832;28;20032;-84
2022/12/18 00:16:04;;;;;;;70.30;33.85;;;-6.80;77.80;;;;;;5019109;28;20025;-84
2022/12/18 00:18:30;;;;;;;73.03;33.97;;;-6.80;76.70;;;;;;5018291;28;20025;-84
2022/12/18 00:21:00;;;;;;;68.20;33.08;;;-6.80;76.30;;;;;;5018064;28;20029;-85
2022/12/18 00:23:26;;;;;;;73.47;33.70;;;-6.70;76.70;;;;;;5018496;28;20024;-86
2022/12/18 00:25:52;;;;;;;67.25;32.15;;;-6.70;78.00;;;;;;5036891;28;20034;-85
2022/12/18 00:28:20;;;;;;;67.57;32.88;;;-6.70;79.40;;;;;;5025684;28;20378;-85
2022/12/18 00:30:45;;;;;;;71.45;31.52;;;-6.60;80.00;;;;;;5020070;28;20048;-86
2022/12/18 00:33:11;;;;;;;68.47;31.90;;;-6.50;80.20;;;;;;5017740;28;20109;-87
2022/12/18 00:35:36;;;;;;;75.68;33.63;;;-6.50;80.20;;;;;;5018143;28;20036;-86
2022/12/18 00:38:02;;;;;;;69.40;31.90;;;-6.40;81.20;;;;;;5018045;28;20409;-86
2022/12/18 00:40:27;;;;;;;76.97;35.13;;;-6.40;80.40;;;;;;5017957;28;20420;-85
2022/12/18 00:42:55;;;;;;;68.75;31.20;;;-6.40;80.50;;;;;;5017426;28;20023;-86
2022/12/18 00:45:26;;;;;;;68.03;32.17;;;-6.30;80.30;;;;;;5017369;28;20017;-86
2022/12/18 00:47:52;;;;;;;65.38;31.35;;;-6.30;80.10;;;;;;5017665;28;20580;-85
2022/12/18 00:50:17;;;;;;;70.15;32.25;;;-6.40;80.10;;;;;;5035684;28;20124;-86
2022/12/18 00:52:43;;;;;;;66.25;31.45;;;-6.40;80.30;;;;;;5017930;28;20053;-86
2022/12/18 00:55:09;;;;;;;67.32;30.85;;;-6.30;80.20;;;;;;5017767;28;20041;-85
2022/12/18 00:57:35;;;;;;;55.58;27.30;;;-6.30;79.50;;;;;;5017438;28;20022;-86
2022/12/18 01:00:01;;;;;;;57.53;27.48;;;-6.40;79.00;;;;;;5017169;28;20040;-86
2022/12/18 01:02:26;;;;;;;59.88;28.48;;;-6.40;79.00;;;;;;5018249;28;20029;-85
2022/12/18 01:04:52;;;;;;;64.35;30.20;;;-6.40;79.10;;;;;;5017593;28;20084;-86
2022/12/18 01:07:18;;;;;;;60.25;28.20;;;-6.40;79.80;;;;;;5017543;28;20057;-86
2022/12/18 01:09:43;;;;;;;65.18;29.13;;;-6.40;79.30;;;;;;5017897;28;20038;-85
2022/12/18 01:12:09;;;;;;;61.17;28.75;;;-6.40;79.20;;;;;;5017253;28;20045;-86
2022/12/18 01:14:34;;;;;;;65.45;30.33;;;-6.40;79.40;;;;;;5017011;28;20025;-86
2022/12/18 01:17:02;;;;;;;61.88;29.65;;;-6.40;78.90;;;;;;5034902;28;20466;-86
2022/12/18 01:19:28;;;;;;;64.82;29.67;;;-6.50;79.00;;;;;;5017342;28;20026;-85
2022/12/18 01:21:53;;;;;;;64.95;29.13;;;-6.50;79.20;;;;;;5016919;28;20251;-86
2022/12/18 01:24:19;;;;;;;63.38;29.25;;;-6.40;79.10;;;;;;5017050;28;20025;-86
2022/12/18 01:26:45;;;;;;;58.65;28.88;;;-6.40;79.50;;;;;;5016758;28;20017;-86
2022/12/18 01:29:11;;;;;;;63.70;29.52;;;-6.40;78.30;;;;;;5034472;28;20112;-86
2022/12/18 01:31:36;;;;;;;60.80;28.63;;;-6.50;78.30;;;;;;5016758;28;20025;-85
2022/12/18 01:34:04;;;;;;;62.47;28.48;;;-6.40;78.30;;;;;;5016283;28;20084;-85
2022/12/18 01:36:33;;;;;;;62.65;29.02;;;-6.40;78.20;;;;;;5016396;28;20112;-84
2022/12/18 01:39:01;;;;;;;64.10;30.35;;;-6.40;78.00;;;;;;5016225;28;20024;-84
2022/12/18 01:44:50;;;;;;;66.85;30.40;;;-6.40;78.50;;;;;;5013311;28;20029;-82
2022/12/18 01:47:23;;;;;;;60.72;28.52;;;-6.40;78.30;;;;;;5013724;28;20077;-83
2022/12/18 01:49:49;;;;;;;66.05;29.35;;;-6.40;78.30;;;;;;5013733;28;20042;-83
2022/12/18 01:52:16;;;;;;;64.97;30.40;;;-6.40;78.20;;;;;;5013634;28;20120;-82
2022/12/18 01:54:42;;;;;;;65.03;30.50;;;-6.30;78.40;;;;;;4995980;28;20486;-82
2022/12/18 01:57:08;;;;;;;63.38;27.90;;;-6.20;78.50;;;;;;4995850;28;20076;-82
2022/12/18 01:59:36;;;;;;;63.72;28.77;;;-6.20;78.30;;;;;;5013385;28;20084;-82
2022/12/18 02:02:03;;;;;;;66.47;30.45;;;-6.20;78.30;;;;;;4995850;28;20050;-81
2022/12/18 02:04:28;;;;;;;63.75;28.73;;;-6.10;78.30;;;;;;4996056;28;20029;-82
2022/12/18 02:07:06;;;;;;;64.13;29.15;;;-6.10;78.30;;;;;;5013437;28;20052;-82
2022/12/18 02:09:37;;;;;;;60.60;28.88;;;-6.00;78.10;;;;;;4995807;28;20058;-82
2022/12/18 02:12:17;;;;;;;61.47;29.17;;;-6.00;78.10;;;;;;5013589;28;20030;-81
2022/12/18 02:14:55;;;;;;;60.80;27.23;;;-6.00;78.30;;;;;;4995782;28;20024;-81
2022/12/18 02:17:23;;;;;;;62.45;28.70;;;-6.00;78.30;;;;;;4995523;28;20028;-81
2022/12/18 02:20:11;;;;;;;63.60;28.55;;;-6.00;78.10;;;;;;5013561;28;20037;-82
2022/12/18 02:23:00;;;;;;;56.47;26.92;;;-5.90;77.80;;;;;;4995660;28;20030;-82
2022/12/18 02:25:57;;;;;;;57.30;27.20;;;-6.00;77.00;;;;;;4995807;28;20363;-82
2022/12/18 02:28:28;;;;;;;57.08;26.75;;;-6.00;76.70;;;;;;4996119;28;20437;-82
2022/12/18 02:30:58;;;;;;;58.63;26.80;;;-6.00;76.60;;;;;;4995282;28;20033;-81
2022/12/18 02:33:25;;;;;;;53.95;25.63;;;-6.00;76.20;;;;;;4995253;28;20148;-82
2022/12/18 02:35:53;;;;;;;56.90;27.50;;;-6.00;76.30;;;;;;5012904;28;20088;-82
2022/12/18 02:38:19;;;;;;;54.30;26.33;;;-6.00;76.20;;;;;;4995413;28;20546;-82
2022/12/18 02:40:46;;;;;;;56.78;27.70;;;-5.90;76.40;;;;;;5013135;28;20097;-84
2022/12/18 02:43:14;;;;;;;61.05;28.10;;;-5.90;76.40;;;;;;4995888;28;20425;-85
2022/12/18 02:46:01;;;;;;;64.13;28.50;;;-5.80;76.40;;;;;;4995659;28;20425;-84
2022/12/18 02:48:33;;;;;;;62.75;27.10;;;-5.80;76.40;;;;;;5012914;28;20026;-83
2022/12/18 02:51:15;;;;;;;56.00;25.95;;;-5.70;76.40;;;;;;4995397;28;20061;-83
2022/12/18 02:53:48;;;;;;;56.50;28.23;;;-5.70;76.10;;;;;;4995775;28;20022;-88
2022/12/18 02:56:22;;;;;;;51.55;25.98;;;-5.70;75.40;;;;;;4999719;28;20030;-88
2022/12/18 02:59:07;;;;;;;51.38;25.67;;;-5.80;74.40;;;;;;5000124;28;20030;-85
2022/12/18 03:01:48;;;;;;;50.47;25.33;;;-5.90;73.90;;;;;;4999668;28;20032;-87
2022/12/18 03:04:38;;;;;;;50.50;25.30;;;-6.00;72.70;;;;;;4999522;28;20133;-87
2022/12/18 03:07:11;;;;;;;48.65;24.88;;;-6.10;73.20;;;;;;4985737;28;20025;-85
2022/12/18 03:09:41;;;;;;;56.53;28.05;;;-6.20;72.90;;;;;;4999530;28;20402;-84
2022/12/18 03:12:35;;;;;;;55.50;26.35;;;-6.20;74.20;;;;;;4999384;28;20022;-85
2022/12/18 03:15:22;;;;;;;56.95;26.95;;;-6.30;75.00;;;;;;5016064;28;20116;-84
2022/12/18 03:18:02;;;;;;;58.38;26.30;;;-6.10;77.50;;;;;;4999154;28;20057;-84
2022/12/18 03:20:31;;;;;;;48.83;25.10;;;-6.00;78.10;;;;;;4998535;28;20397;-84
2022/12/18 03:23:09;;;;;;;63.38;27.83;;;-6.00;75.00;;;;;;4998775;28;20026;-83
2022/12/18 03:25:38;;;;;;;61.97;28.20;;;-6.20;76.60;;;;;;4998992;28;20026;-85
2022/12/18 03:28:08;;;;;;;55.65;27.60;;;-6.10;78.50;;;;;;4999466;28;20467;-85
2022/12/18 03:30:37;;;;;;;58.20;26.67;;;-6.20;76.20;;;;;;4999208;28;20056;-85
2022/12/18 03:33:17;;;;;;;49.58;24.92;;;-6.30;74.60;;;;;;4999419;28;20124;-85
2022/12/18 03:35:43;;;;;;;53.40;25.60;;;-6.40;73.00;;;;;;4999399;28;20029;-85
2022/12/18 03:38:10;;;;;;;54.60;26.27;;;-6.60;72.00;;;;;;4999399;28;20033;-85
2022/12/18 03:40:41;;;;;;;54.08;26.40;;;-6.80;73.40;;;;;;4998971;28;20026;-86
2022/12/18 03:43:19;;;;;;;53.53;25.65;;;-6.80;74.50;;;;;;4998409;28;20479;-83
2022/12/18 03:45:54;;;;;;;52.53;25.95;;;-6.80;74.70;;;;;;5016049;28;20030;-82
2022/12/18 03:48:25;;;;;;;;;;;-6.80;74.60;;;;;;4998638;28;20022;-84
2022/12/18 03:51:07;;;;;;;55.80;26.85;;;-6.70;76.30;;;;;;4998167;28;20048;-85
2022/12/18 03:53:39;;;;;;;55.38;26.25;;;-6.80;75.30;;;;;;4998423;28;20026;-85
2022/12/18 03:56:06;;;;;;;58.30;27.10;;;-6.90;74.50;;;;;;4998270;28;20033;-84
2022/12/18 03:58:35;;;;;;;58.53;28.17;;;-6.90;77.00;;;;;;4998200;28;20108;-84
2022/12/18 04:01:03;;;;;;;59.60;28.67;;;-6.90;77.70;;;;;;4998038;28;20061;-85
2022/12/18 04:03:31;;;;;;;74.30;30.17;;;-6.70;79.20;;;;;;4998210;28;20109;-85
2022/12/18 04:05:59;;;;;;;63.67;29.30;;;-6.50;81.30;;;;;;4997209;28;20228;-85
2022/12/18 04:08:26;;;;;;;67.65;29.92;;;-6.30;81.60;;;;;;4997949;28;20490;-85
2022/12/18 04:10:51;;;;;;;66.35;30.00;;;-6.10;81.20;;;;;;4998058;28;20478;-83
2022/12/18 04:13:43;;;;;;;65.07;28.05;;;-6.00;80.80;;;;;;4997822;28;20077;-84
2022/12/18 04:16:09;;;;;;;64.63;28.17;;;-5.90;80.30;;;;;;4993631;28;20045;-83
2022/12/18 04:18:35;;;;;;;62.35;28.83;;;-5.80;79.70;;;;;;4998012;28;20022;-84
2022/12/18 04:21:01;;;;;;;64.72;28.70;;;-5.90;79.70;;;;;;4998264;28;20061;-85
2022/12/18 04:23:28;;;;;;;63.47;28.88;;;-5.80;79.80;;;;;;4997816;28;20026;-84
2022/12/18 04:25:53;;;;;;;65.60;28.98;;;-5.80;79.80;;;;;;4997856;28;20026;-85
2022/12/18 04:28:19;;;;;;;64.63;29.17;;;-5.80;79.80;;;;;;4997811;28;20080;-85
2022/12/18 04:30:45;;;;;;;67.43;29.80;;;-5.70;79.90;;;;;;4997890;28;20041;-83
2022/12/18 04:33:12;;;;;;;61.38;27.90;;;-5.70;79.70;;;;;;4997751;28;20022;-85
2022/12/18 04:35:39;;;;;;;57.63;27.90;;;-5.70;79.50;;;;;;4998143;28;20084;-84
2022/12/18 04:38:06;;;;;;;62.75;29.27;;;-5.70;79.40;;;;;;4997315;28;20033;-83
2022/12/18 04:40:35;;;;;;;63.17;28.65;;;-5.70;79.40;;;;;;4997684;28;20394;-85
2022/12/18 04:43:01;;;;;;;68.75;29.58;;;-5.70;79.50;;;;;;4997735;28;20022;-82
2022/12/18 04:45:26;;;;;;;64.60;28.45;;;-5.60;79.30;;;;;;5015209;28;20514;-84
2022/12/18 04:47:52;;;;;;;61.75;28.08;;;-5.60;79.30;;;;;;5000724;28;20030;-83
2022/12/18 04:50:17;;;;;;;59.83;27.85;;;-5.60;79.10;;;;;;5005132;28;20474;-82
2022/12/18 04:52:43;;;;;;;58.15;27.48;;;-5.60;79.20;;;;;;4997552;28;20046;-84
2022/12/18 04:55:09;;;;;;;64.90;29.15;;;-5.60;79.10;;;;;;4997353;28;20258;-83
2022/12/18 04:57:34;;;;;;;60.08;26.90;;;-5.60;79.00;;;;;;4997483;28;20025;-84
2022/12/18 05:00:00;;;;;;;65.65;31.08;;;-5.60;79.00;;;;;;5014731;28;20060;-83
2022/12/18 05:02:25;;;;;;;65.40;29.15;;;-5.60;79.10;;;;;;4997227;28;20045;-83
2022/12/18 05:04:51;;;;;;;63.08;28.15;;;-5.60;79.30;;;;;;5014816;28;20026;-84
2022/12/18 05:07:17;;;;;;;64.97;30.05;;;-5.60;79.60;;;;;;4997041;28;20475;-82
2022/12/18 05:09:42;;;;;;;61.55;29.17;;;-5.60;79.30;;;;;;5016947;28;20041;-82
2022/12/18 05:12:08;;;;;;;63.92;28.17;;;-5.60;79.50;;;;;;5016312;28;20017;-83
2022/12/18 05:14:33;;;;;;;60.05;27.70;;;-5.60;79.60;;;;;;5016421;28;20488;-83
2022/12/18 05:16:59;;;;;;;63.25;28.83;;;-5.60;79.20;;;;;;5016602;28;20048;-83
2022/12/18 05:19:24;;;;;;;60.92;28.17;;;-5.60;79.40;;;;;;5016313;28;20156;-83
2022/12/18 05:21:50;;;;;;;59.70;29.15;;;-5.60;79.30;;;;;;5016376;28;20474;-83
2022/12/18 05:24:15;;;;;;;59.10;28.00;;;-5.60;79.10;;;;;;5016658;28;20026;-84
2022/12/18 05:26:41;;;;;;;65.28;28.05;;;-5.50;78.70;;;;;;5016503;28;20022;-84
2022/12/18 05:29:07;;;;;;;59.15;27.08;;;-5.50;78.50;;;;;;5034085;28;20091;-82
2022/12/18 05:31:32;;;;;;;59.72;27.70;;;-5.50;78.20;;;;;;5034215;28;20112;-82
2022/12/18 05:33:58;;;;;;;61.42;28.42;;;-5.60;78.30;;;;;;5016141;28;20028;-82
2022/12/18 05:36:23;;;;;;;64.35;28.60;;;-5.60;78.50;;;;;;5018018;28;20039;-84
2022/12/18 05:38:49;;;;;;;61.80;29.88;;;-5.60;78.40;;;;;;5049394;28;20029;-82
2022/12/18 05:41:14;;;;;;;58.58;28.10;;;-5.60;78.30;;;;;;5035655;28;20474;-84
2022/12/18 05:43:40;;;;;;;65.38;29.33;;;-5.50;78.30;;;;;;5016522;28;20382;-83
2022/12/18 05:46:09;;;;;;;60.85;28.70;;;-5.60;78.40;;;;;;5034046;28;20030;-84
2022/12/18 05:48:35;;;;;;;62.63;28.67;;;-5.60;78.60;;;;;;5017290;28;20028;-83
2022/12/18 05:51:07;;;;;;;62.60;27.63;;;-5.60;78.50;;;;;;5015905;28;20057;-84
2022/12/18 05:53:34;;;;;;;68.05;28.92;;;-5.60;78.00;;;;;;5015910;28;20040;-81
2022/12/18 05:56:05;;;;;;;62.25;28.17;;;-5.50;78.00;;;;;;5015455;28;20036;-82
2022/12/18 05:58:31;;;;;;;60.15;28.55;;;-5.50;78.00;;;;;;5033792;28;20021;-81
2022/12/18 06:01:05;;;;;;;66.18;30.15;;;-5.60;78.10;;;;;;5016906;28;20048;-83
2022/12/18 06:03:31;;;;;;;62.58;27.88;;;-5.60;78.40;;;;;;5016824;28;20021;-83
2022/12/18 06:05:56;;;;;;;66.22;28.77;;;-5.60;78.70;;;;;;5015919;28;20029;-84
2022/12/18 06:08:22;;;;;;;58.55;28.13;;;-5.60;78.90;;;;;;5016795;28;20359;-86
2022/12/18 06:10:54;;;;;;;62.97;29.25;;;-5.60;78.70;;;;;;5017424;28;20049;-85
2022/12/18 06:13:20;;;;;;;59.20;27.75;;;-5.60;78.30;;;;;;5016458;28;20546;-86
2022/12/18 06:15:46;;;;;;;61.45;27.38;;;-5.60;78.40;;;;;;5016915;28;20057;-82
2022/12/18 06:18:12;;;;;;;57.50;26.83;;;-5.60;78.20;;;;;;5016449;28;20116;-84
2022/12/18 06:20:39;;;;;;;61.80;27.88;;;-5.60;78.00;;;;;;5016517;28;20079;-83
2022/12/18 06:23:05;;;;;;;57.33;27.30;;;-5.60;77.80;;;;;;5016670;28;20025;-83
2022/12/18 06:25:32;;;;;;;56.40;26.42;;;-5.50;77.80;;;;;;5015982;28;20022;-85
2022/12/18 06:27:57;;;;;;;63.65;29.35;;;-5.50;77.60;;;;;;5034070;28;20033;-86
2022/12/18 06:30:23;;;;;;;56.85;25.40;;;-5.60;77.70;;;;;;5035830;28;20045;-84
2022/12/18 06:32:49;;;;;;;57.50;27.52;;;-5.60;77.70;;;;;;5020760;28;20029;-86
2022/12/18 06:35:15;;;;;;;58.38;27.73;;;-5.60;77.80;;;;;;5022231;28;20604;-85
2022/12/18 06:37:41;;;;;;;63.03;28.10;;;-5.60;77.90;;;;;;5020341;28;20048;-82
2022/12/18 06:40:07;;;;;;;59.67;28.42;;;-5.60;78.00;;;;;;5020372;28;20151;-85
2022/12/18 06:42:33;;;;;;;63.08;29.48;;;-5.60;77.80;;;;;;5019792;28;20028;-83
2022/12/18 06:44:58;;;;;;;62.70;28.90;;;-5.60;78.20;;;;;;5037602;28;20025;-84
2022/12/18 06:47:24;;;;;;;60.92;28.48;;;-5.50;78.20;;;;;;5019929;28;20425;-85
2022/12/18 06:49:49;;;;;;;60.20;27.63;;;-5.60;77.90;;;;;;5037840;28;20429;-86
2022/12/18 06:52:15;;;;;;;59.58;26.90;;;-5.60;78.20;;;;;;5019758;28;20069;-85
2022/12/18 06:54:40;;;;;;;64.50;28.60;;;-5.60;78.10;;;;;;5019911;28;20068;-85
2022/12/18 06:57:06;;;;;;;66.97;29.70;;;-5.60;78.00;;;;;;5019486;28;20512;-83
2022/12/18 06:59:31;;;;;;;62.30;28.30;;;-5.60;78.10;;;;;;5019363;28;20465;-84
2022/12/18 07:01:57;;;;;;;59.42;27.85;;;-5.70;78.30;;;;;;5019446;28;20112;-84
2022/12/18 07:04:28;;;;;;;60.88;27.70;;;-5.60;78.10;;;;;;5037150;28;20033;-83
2022/12/18 07:06:54;;;;;;;61.10;28.20;;;-5.60;78.00;;;;;;5002967;28;20026;-84
2022/12/18 07:09:19;;;;;;;59.72;27.67;;;-5.50;77.70;;;;;;5019368;28;20409;-82
2022/12/18 07:11:45;;;;;;;55.85;26.25;;;-5.60;77.40;;;;;;5019016;28;20390;-82
2022/12/18 07:14:10;;;;;;;57.92;27.15;;;-5.60;77.30;;;;;;5018967;28;20022;-83
2022/12/18 07:16:36;;;;;;;62.35;27.83;;;-5.60;77.40;;;;;;5019434;28;20389;-82
2022/12/18 07:19:02;;;;;;;58.45;27.05;;;-5.60;77.40;;;;;;5020440;28;20022;-85
2022/12/18 07:21:27;;;;;;;58.47;26.77;;;-5.50;77.40;;;;;;5020696;28;20025;-86
2022/12/18 07:23:53;;;;;;;62.38;27.67;;;-5.50;77.30;;;;;;5020820;28;20060;-86
2022/12/18 07:26:20;;;;;;;62.83;27.55;;;-5.60;77.40;;;;;;5038342;28;20022;-88
2022/12/18 07:28:47;;;;;;;57.15;26.42;;;-5.60;77.70;;;;;;5020821;28;20021;-85
2022/12/18 07:31:15;;;;;;;63.22;27.15;;;-5.60;77.60;;;;;;5020618;28;20048;-88
2022/12/18 07:33:41;;;;;;;55.65;26.25;;;-5.60;77.70;;;;;;5026094;28;20049;-85
2022/12/18 07:36:09;;;;;;;58.70;27.95;;;-5.60;77.40;;;;;;5025094;28;20021;-87
2022/12/18 07:38:35;;;;;;;62.42;26.63;;;-5.60;77.30;;;;;;5038471;28;20096;-85
2022/12/18 07:41:09;;;;;;;60.55;27.25;;;-5.60;77.50;;;;;;5019306;28;20127;-84
2022/12/18 07:43:35;;;;;;;61.47;27.50;;;-5.70;77.50;;;;;;5020658;28;20018;-84
2022/12/18 07:46:00;;;;;;;58.85;28.00;;;-5.60;78.50;;;;;;5020068;28;20408;-82
2022/12/18 07:48:27;;;;;;;58.33;26.55;;;-5.60;77.70;;;;;;5037933;28;20072;-84
2022/12/18 07:50:52;;;;;;;61.70;28.05;;;-5.50;77.60;;;;;;5036071;28;20049;-82
2022/12/18 07:53:18;;;;;;;62.97;26.48;;;-5.30;79.90;;;;;;5018800;28;20097;-84
2022/12/18 07:55:44;;;;;;;61.55;28.80;;;-5.20;77.80;;;;;;5036101;28;20033;-84
2022/12/18 07:58:09;;;;;;;56.05;26.55;;;-5.10;77.00;;;;;;5035909;28;20497;-85
2022/12/18 08:00:35;;;;;;;59.08;27.75;;;-5.00;75.60;;;;;;5018167;28;20026;-83
2022/12/18 08:03:01;;;;;;;69.03;29.08;;;-4.90;75.10;;;;;;5017705;28;20030;-81
2022/12/18 08:05:27;;;;;;;61.30;26.70;;;-4.60;78.50;;;;;;5035108;28;20025;-79
2022/12/18 08:07:53;;;;;;;56.83;26.88;;;-4.50;75.40;;;;;;5035186;28;20026;-81
2022/12/18 08:10:19;;;;;;;57.08;26.15;;;-4.20;74.10;;;;;;5035127;28;20106;-80
2022/12/18 08:12:45;;;;;;;57.70;25.13;;;-4.00;74.60;;;;;;5017269;28;20420;-79
2022/12/18 08:15:11;;;;;;;53.17;25.02;;;-3.90;71.10;;;;;;5035366;28;20025;-80
2022/12/18 08:17:36;;;;;;;59.10;26.08;;;-3.80;69.70;;;;;;5036975;28;20028;-82
2022/12/18 08:20:02;;;;;;;58.03;26.10;;;-4.00;69.30;;;;;;5025624;28;20021;-83
2022/12/18 08:22:28;;;;;;;53.70;25.38;;;-4.20;69.40;;;;;;5036593;28;20025;-84
2022/12/18 08:24:53;;;;;;;60.20;26.52;;;-4.30;70.20;;;;;;5018975;28;20022;-83
2022/12/18 08:27:19;;;;;;;57.47;26.08;;;-4.50;70.70;;;;;;5036696;28;20032;-84
2022/12/18 08:29:44;;;;;;;54.42;25.50;;;-4.50;71.30;;;;;;5019181;28;20069;-82
2022/12/18 08:32:10;;;;;;;58.85;26.00;;;-4.50;71.40;;;;;;5035078;28;20068;-81
2022/12/18 08:34:36;;;;;;;58.03;24.50;;;-4.50;71.40;;;;;;5017372;28;20029;-81
2022/12/18 08:37:01;;;;;;;60.17;27.13;;;-4.30;71.10;;;;;;5017085;28;20045;-81
2022/12/18 08:39:27;;;;;;;54.45;25.42;;;-4.30;70.50;;;;;;5034959;28;20103;-83
2022/12/18 08:44:39;;;;;;;59.60;27.25;;;-4.20;70.20;;;;;;5035093;28;20064;-83
2022/12/18 08:47:06;;;;;;;59.58;26.60;;;-4.00;69.80;;;;;;5017172;28;20117;-82
2022/12/18 08:49:33;;;;;;;57.63;25.60;;;-3.90;69.30;;;;;;5016890;28;20116;-82
2022/12/18 08:51:59;;;;;;;57.40;25.60;;;-3.80;68.70;;;;;;5016178;28;20061;-82
2022/12/18 08:54:25;;;;;;;58.33;26.42;;;-3.60;68.50;;;;;;5016357;28;20029;-83
2022/12/18 08:56:50;;;;;;;56.05;25.45;;;-3.50;67.70;;;;;;5034402;28;20501;-83
2022/12/18 08:59:17;;;;;;;53.97;25.27;;;-3.30;67.30;;;;;;5034278;28;20390;-82
2022/12/18 09:01:43;;;;;;;65.68;29.98;;;-3.20;66.20;;;;;;5034243;28;20030;-82
2022/12/18 09:04:12;;;;;;;59.35;28.40;;;-3.00;65.60;;;;;;5034039;28;20017;-82
2022/12/18 09:06:37;;;;;;;65.18;30.13;;;-2.90;65.00;;;;;;5034119;28;20458;-81
2022/12/18 09:09:04;;;;;;;59.15;27.33;;;-2.70;64.50;;;;;;5016312;28;20050;-84
2022/12/18 09:11:31;;;;;;;58.92;25.60;;;-2.50;64.30;;;;;;5019298;28;20034;-83
2022/12/18 09:13:58;;;;;;;56.60;25.58;;;-2.20;64.30;;;;;;5019632;28;20032;-85
2022/12/18 09:16:24;;;;;;;51.88;25.30;;;-2.00;62.20;;;;;;5018234;28;20119;-85
2022/12/18 09:18:50;;;;;;;56.80;23.80;;;-1.90;61.40;;;;;;5018395;28;20453;-85
2022/12/18 09:21:20;;;;;;;53.90;24.17;;;-1.90;61.70;;;;;;5016854;28;20066;-85
2022/12/18 09:23:50;;;;;;;55.47;25.15;;;-1.60;60.90;;;;;;5016860;28;20056;-84
2022/12/18 09:26:15;;;;;;;52.58;24.25;;;-1.50;60.20;;;;;;5016284;28;20433;-85
2022/12/18 09:28:41;;;;;;;49.10;23.55;;;-1.30;60.00;;;;;;5016967;28;20075;-83
2022/12/18 09:31:08;;;;;;;49.78;22.95;;;-1.20;59.30;;;;;;5016291;28;20034;-85
2022/12/18 09:33:35;;;;;;;51.60;23.48;;;-1.20;59.00;;;;;;5028755;28;20049;-85
2022/12/18 09:36:03;;;;;;;50.63;23.63;;;-1.20;59.00;;;;;;5012309;28;20434;-84
2022/12/18 09:38:28;;;;;;;54.08;24.05;;;-1.00;58.90;;;;;;4998478;28;20121;-84
2022/12/18 09:40:59;;;;;;;51.08;23.20;;;-1.20;59.30;;;;;;4996523;28;20508;-84
2022/12/18 09:43:36;;;;;;;47.42;22.70;;;-1.10;59.20;;;;;;5014187;28;20030;-84
2022/12/18 09:46:05;;;;;;;49.15;21.92;;;-1.00;59.30;;;;;;4996642;28;20422;-84
2022/12/18 09:48:36;;;;;;;47.05;20.90;;;-0.80;58.10;;;;;;4996417;28;20029;-82
2022/12/18 09:51:24;;;;;;;46.15;20.80;;;-0.50;57.60;;;;;;4996158;28;20513;-82
2022/12/18 09:53:59;;;;;;;45.17;21.05;;;-0.50;57.10;;;;;;4996642;28;20030;-83
2022/12/18 09:56:28;;;;;;;;;;;-0.40;56.80;;;;;;5014392;28;20028;-84
2022/12/18 09:59:02;;;;;;;43.88;20.60;;;-0.40;57.10;;;;;;4996682;28;20433;-84
2022/12/18 10:01:29;;;;;;;46.40;21.63;;;-0.10;56.70;;;;;;4996807;28;20033;-84
2022/12/18 10:03:55;;;;;;;46.95;20.50;;;-0.20;55.40;;;;;;4995570;28;20105;-85
2022/12/18 10:06:44;;;;;;;43.75;20.65;;;-0.20;56.20;;;;;;4996099;28;20052;-83
2022/12/18 10:09:28;;;;;;;46.60;20.73;;;-0.10;56.70;;;;;;4995843;28;20032;-82
2022/12/18 10:11:59;;;;;;;45.75;20.98;;;0.00;56.20;;;;;;4996129;28;20076;-83
2022/12/18 10:14:28;;;;;;;46.58;20.90;;;0.10;55.90;;;;;;4996013;28;20117;-83
2022/12/18 10:17:07;;;;;;;47.67;20.08;;;0.00;55.90;;;;;;4996632;28;20029;-82
2022/12/18 10:19:38;;;;;;;45.97;20.75;;;0.20;55.60;;;;;;4996064;28;20022;-83
2022/12/18 10:22:24;;;;;;;47.00;22.00;;;0.50;55.10;;;;;;4995451;28;20113;-83
2022/12/18 10:24:59;;;;;;;42.70;20.88;;;1.00;53.60;;;;;;4995774;28;20037;-82
2022/12/18 10:27:26;;;;;;;33.80;15.57;;;1.30;52.50;;;;;;5013325;28;20041;-83
2022/12/18 10:29:52;;;;;;;39.47;19.67;;;1.60;51.60;;;;;;4995763;28;20045;-83
2022/12/18 10:32:20;;;;;;;41.13;19.20;;;1.90;50.70;;;;;;4995667;28;20026;-82
2022/12/18 10:34:48;;;;;;;42.72;20.50;;;2.00;50.30;;;;;;4995394;28;20084;-83
2022/12/18 10:37:20;;;;;;;43.20;19.52;;;2.40;48.70;;;;;;4995517;28;20018;-84
2022/12/18 10:40:04;;;;;;;43.72;20.83;;;2.50;48.30;;;;;;5012848;28;20125;-83
2022/12/18 10:42:29;;;;;;;43.53;20.08;;;2.70;48.50;;;;;;4995044;28;20092;-83
2022/12/18 10:45:08;;;;;;;44.78;20.48;;;2.80;47.30;;;;;;5012706;28;20049;-82
2022/12/18 10:47:34;;;;;;;45.10;20.52;;;2.50;47.70;;;;;;4996128;28;20505;-82
2022/12/18 10:49:59;;;;;;;40.75;19.65;;;2.20;48.80;;;;;;5007865;28;20477;-85
2022/12/18 10:52:27;;;;;;;44.55;20.75;;;2.30;48.90;;;;;;5015059;28;20060;-83
2022/12/18 10:54:58;;;;;;;45.20;20.20;;;2.20;49.00;;;;;;5014894;28;20109;-83
2022/12/18 10:57:35;;;;;;;46.00;21.15;;;2.30;49.70;;;;;;5014980;28;20091;-82
2022/12/18 11:00:20;;;;;;;42.20;19.80;;;2.70;48.80;;;;;;5015054;28;20474;-82
2022/12/18 11:02:46;;;;;;;44.03;19.92;;;3.10;47.70;;;;;;5032634;28;20029;-83
2022/12/18 11:05:26;;;;;;;46.08;22.05;;;3.60;45.90;;;;;;5014806;28;20038;-83
2022/12/18 11:07:56;;;;;;;57.70;25.92;;;4.20;43.90;;;;;;5014938;28;20017;-84
2022/12/18 11:10:34;;;;;;;49.05;22.05;;;4.70;42.80;;;;;;5015020;28;20034;-84
2022/12/18 11:13:20;;;;;;;45.38;21.00;;;5.40;41.10;;;;;;5015154;28;20026;-84
2022/12/18 11:15:46;;;;;;;46.80;22.65;;;5.50;40.50;;;;;;5015938;28;20116;-83
2022/12/18 11:18:34;;;;;;;42.80;19.92;;;5.60;39.70;;;;;;5018340;28;20505;-83
2022/12/18 11:21:06;;;;;;;41.67;21.10;;;6.00;39.70;;;;;;5018407;28;20032;-84
2022/12/18 11:23:32;;;;;;;43.72;22.13;;;6.50;38.50;;;;;;5018724;28;20021;-82
2022/12/18 11:26:05;;;;;;;42.85;20.95;;;6.70;37.90;;;;;;5018480;28;20541;-85
2022/12/18 11:29:07;;;;;;;37.78;20.10;;;7.20;36.60;;;;;;5035939;28;20049;-82
2022/12/18 11:31:33;;;;;;;39.28;20.88;;;7.50;36.10;;;;;;5017187;28;20575;-82
2022/12/18 11:34:04;;;;;;;42.88;21.27;;;7.20;36.60;;;;;;5018721;28;20148;-84
2022/12/18 11:36:36;;;;;;;40.00;20.40;;;7.20;36.60;;;;;;5018194;28;20131;-81
2022/12/18 11:39:12;;;;;;;42.97;21.73;;;6.80;37.20;;;;;;5018109;28;20044;-82
2022/12/18 11:42:09;;;;;;;42.10;21.15;;;6.80;37.80;;;;;;5036224;28;20022;-84
2022/12/18 11:44:47;;;;;;;40.65;21.33;;;6.60;38.30;;;;;;5018166;28;20049;-77
2022/12/18 11:47:18;;;;;;;43.20;22.52;;;6.40;39.00;;;;;;5035698;28;20036;-77
2022/12/18 11:49:44;;;;;;;37.78;18.02;;;7.10;40.90;;;;;;5035428;28;20041;-78
2022/12/18 11:52:24;;;;;;;39.20;21.08;;;8.00;42.80;;;;;;5035424;28;20062;-76
2022/12/18 11:54:55;;;;;;;41.72;20.10;;;8.70;39.70;;;;;;5035389;28;20478;-76
2022/12/18 11:57:42;;;;;;;39.92;20.50;;;9.20;38.20;;;;;;5035212;28;20061;-76
2022/12/18 12:00:17;;;;;;;40.20;22.02;;;9.00;35.90;;;;;;5035334;28;20053;-77
2022/12/18 12:03:17;;;;;;;38.25;20.88;;;8.30;35.20;;;;;;5035286;28;20021;-79
2022/12/18 12:05:49;;;;;;;40.17;21.90;;;7.90;37.00;;;;;;5035411;28;20018;-83
2022/12/18 12:08:49;;;;;;;39.90;21.95;;;7.80;37.70;;;;;;5037638;28;20036;-85
2022/12/18 12:11:36;;;;;;;45.63;23.75;;;7.40;37.10;;;;;;5018866;28;20132;-85
2022/12/18 12:14:22;;;;;;;44.58;23.85;;;6.70;38.20;;;;;;5035182;28;20025;-87
2022/12/18 12:17:17;;;;;;;46.92;23.70;;;6.30;39.30;;;;;;5034325;28;20099;-80
2022/12/18 12:19:49;;;;;;;39.28;20.17;;;5.70;41.50;;;;;;5010382;28;20038;-86
2022/12/18 12:22:34;;;;;;;45.63;23.25;;;5.60;42.50;;;;;;5037575;28;20029;-82
2022/12/18 12:25:18;;;;;;;47.38;22.70;;;5.30;43.40;;;;;;5036722;28;20026;-85
2022/12/18 12:28:14;;;;;;;46.42;23.15;;;5.50;45.70;;;;;;5019091;28;20103;-85
2022/12/18 12:30:52;;;;;;;44.67;22.77;;;5.90;44.80;;;;;;5039263;28;20033;-83
2022/12/18 12:33:44;;;;;;;44.08;22.60;;;6.40;43.10;;;;;;5017332;28;20017;-85
2022/12/18 12:36:36;;;;;;;45.83;23.10;;;6.70;42.40;;;;;;5035141;28;20156;-84
2022/12/18 12:39:08;;;;;;;42.33;23.27;;;7.10;40.50;;;;;;5017733;28;20029;-84
2022/12/18 12:44:46;;;;;;;47.22;24.35;;;6.80;41.30;;;;;;5034885;28;20076;-84
2022/12/18 12:47:18;;;;;;;52.70;24.75;;;6.40;41.80;;;;;;5017247;28;20024;-84
2022/12/18 12:49:47;;;;;;;48.47;24.55;;;6.50;41.70;;;;;;5016931;28;20037;-84
2022/12/18 12:52:21;;;;;;;49.80;24.30;;;6.50;41.40;;;;;;5016568;28;20046;-84
2022/12/18 12:54:48;;;;;;;52.08;25.20;;;6.60;41.30;;;;;;5016317;28;20060;-84